createdAt,value
2019-03-21T00:01:14.278Z,99.90
2019-03-21T00:03:19.855Z,99.90
2019-03-21T00:05:26.890Z,99.90
2019-03-21T00:07:32.541Z,99.90
2019-03-21T00:09:38.654Z,99.90
2019-03-21T00:12:21.290Z,99.90
2019-03-21T00:14:40.155Z,99.90
2019-03-21T00:16:45.764Z,99.90
2019-03-21T00:18:51.387Z,99.90
2019-03-21T00:20:56.887Z,99.90
2019-03-21T00:23:02.929Z,99.90
2019-03-21T00:25:09.520Z,99.90
2019-03-21T00:27:14.988Z,99.90
2019-03-21T00:29:20.787Z,99.90
2019-03-21T00:31:26.521Z,99.90
2019-03-21T00:33:32.439Z,99.90
2019-03-21T00:35:38.696Z,99.90
2019-03-21T00:37:44.519Z,99.90
2019-03-21T00:39:50.406Z,99.90
2019-03-21T00:41:55.997Z,99.90
2019-03-21T00:44:01.898Z,99.90
2019-03-21T00:46:07.650Z,99.90
2019-03-21T00:48:15.054Z,99.90
2019-03-21T00:50:21.801Z,99.90
2019-03-21T00:52:27.488Z,99.90
2019-03-21T00:54:33.223Z,99.90
2019-03-21T00:56:38.792Z,99.90
2019-03-21T00:58:44.424Z,99.90
2019-03-21T01:00:52.430Z,99.90
2019-03-21T01:02:58.190Z,99.90
2019-03-21T01:05:03.930Z,99.90
2019-03-21T01:07:09.703Z,99.90
2019-03-21T01:09:15.637Z,99.90
2019-03-21T01:11:21.448Z,99.90
2019-03-21T01:13:29.746Z,99.90
2019-03-21T01:15:35.416Z,99.90
2019-03-21T01:17:40.864Z,99.90
2019-03-21T01:19:46.746Z,99.90
2019-03-21T01:21:52.554Z,99.90
2019-03-21T01:23:58.211Z,99.90
2019-03-21T01:26:04.083Z,99.90
2019-03-21T01:28:09.770Z,99.90
2019-03-21T01:30:16.467Z,99.90
2019-03-21T01:32:22.159Z,99.90
2019-03-21T01:34:27.802Z,99.90
2019-03-21T01:36:33.487Z,99.90
2019-03-21T01:38:39.151Z,99.90
2019-03-21T01:40:45.363Z,99.90
2019-03-21T01:42:51.154Z,99.90
2019-03-21T01:44:57.011Z,99.90
2019-03-21T01:47:02.508Z,99.90
2019-03-21T01:49:08.100Z,99.90
2019-03-21T01:51:13.810Z,99.90
2019-03-21T01:53:19.867Z,99.90
2019-03-21T01:55:25.587Z,99.90
2019-03-21T01:57:31.263Z,99.90
2019-03-21T01:59:36.975Z,99.90
2019-03-21T02:01:42.889Z,99.90
2019-03-21T02:03:48.543Z,99.90
2019-03-21T02:05:54.039Z,99.90
2019-03-21T02:07:59.701Z,99.90
2019-03-21T02:10:05.607Z,99.90
2019-03-21T02:12:12.093Z,99.90
2019-03-21T02:14:17.663Z,99.90
2019-03-21T02:16:23.248Z,99.90
2019-03-21T02:18:28.751Z,99.90
2019-03-21T02:20:34.551Z,99.90
2019-03-21T02:22:40.178Z,99.90
2019-03-21T02:24:45.584Z,99.90
2019-03-21T02:26:51.189Z,99.90
2019-03-21T02:28:56.832Z,99.90
2019-03-21T02:31:02.469Z,99.90
2019-03-21T02:33:29.706Z,99.90
2019-03-21T02:35:35.407Z,99.90
2019-03-21T02:37:40.916Z,99.90
2019-03-21T02:39:58.537Z,99.90
2019-03-21T02:41:53.930Z,99.90
2019-03-21T02:43:59.503Z,99.90
2019-03-21T02:46:05.409Z,99.90
2019-03-21T02:48:10.979Z,99.90
2019-03-21T02:50:19.869Z,99.90
2019-03-21T02:52:25.426Z,99.90
2019-03-21T02:54:31.184Z,99.90
2019-03-21T02:56:36.745Z,99.90
2019-03-21T02:58:42.363Z,99.90
2019-03-21T03:00:47.923Z,99.90
2019-03-21T03:02:55.467Z,99.90
2019-03-21T03:05:00.969Z,99.90
2019-03-21T03:07:07.359Z,99.90
2019-03-21T03:09:13.033Z,99.90
2019-03-21T03:11:18.698Z,99.90
2019-03-21T03:13:24.256Z,99.90
2019-03-21T03:15:31.179Z,99.90
2019-03-21T03:17:40.608Z,99.90
2019-03-21T03:19:46.210Z,99.90
2019-03-21T03:21:51.965Z,99.90
2019-03-21T03:23:57.604Z,99.90
2019-03-21T03:26:03.502Z,99.90
2019-03-21T03:28:18.466Z,99.90
2019-03-21T03:30:24.886Z,99.90
2019-03-21T03:32:30.628Z,99.90
2019-03-21T03:34:35.991Z,99.90
2019-03-21T03:36:41.620Z,99.90
2019-03-21T03:38:47.309Z,99.90
2019-03-21T03:40:55.511Z,99.90
2019-03-21T03:43:00.954Z,99.90
2019-03-21T03:45:07.824Z,99.90
2019-03-21T03:47:13.441Z,99.90
2019-03-21T03:49:18.910Z,99.90
2019-03-21T03:51:24.459Z,99.90
2019-03-21T03:53:30.159Z,99.90
2019-03-21T03:55:35.630Z,99.90
2019-03-21T03:57:41.362Z,99.90
2019-03-21T03:59:47.060Z,99.90
2019-03-21T04:01:52.533Z,99.90
2019-03-21T04:03:58.111Z,99.90
2019-03-21T04:06:03.944Z,99.90
2019-03-21T04:08:09.826Z,99.90
2019-03-21T04:10:18.510Z,99.90
2019-03-21T04:12:24.532Z,99.90
2019-03-21T04:14:31.794Z,99.90
2019-03-21T04:16:37.260Z,99.90
2019-03-21T04:18:42.814Z,99.90
2019-03-21T04:20:49.230Z,99.90
2019-03-21T04:22:54.811Z,99.90
2019-03-21T04:25:01.160Z,99.90
2019-03-21T04:27:06.943Z,99.90
2019-03-21T04:29:12.453Z,99.90
2019-03-21T04:31:18.058Z,99.90
2019-03-21T04:33:23.756Z,99.90
2019-03-21T04:35:29.574Z,99.90
2019-03-21T04:37:35.334Z,99.90
2019-03-21T04:39:40.900Z,99.90
2019-03-21T04:41:46.442Z,99.90
2019-03-21T04:43:51.998Z,99.90
2019-03-21T04:46:03.438Z,99.90
2019-03-21T04:48:08.256Z,99.90
2019-03-21T04:50:16.038Z,99.90
2019-03-21T04:52:21.681Z,99.90
2019-03-21T04:54:27.529Z,99.90
2019-03-21T04:56:33.134Z,99.90
2019-03-21T04:58:38.859Z,99.90
2019-03-21T05:00:44.553Z,99.90
2019-03-21T05:02:50.297Z,99.90
2019-03-21T05:04:55.746Z,99.90
2019-03-21T05:07:01.159Z,99.90
2019-03-21T05:09:10.025Z,99.90
2019-03-21T05:11:15.734Z,99.90
2019-03-21T05:13:21.505Z,99.90
2019-03-21T05:15:32.678Z,99.90
2019-03-21T05:17:38.307Z,99.90
2019-03-21T05:19:44.057Z,99.90
2019-03-21T05:21:49.638Z,99.90
2019-03-21T05:23:55.305Z,99.90
2019-03-21T05:26:01.090Z,99.90
2019-03-21T05:28:06.762Z,99.90
2019-03-21T05:30:15.678Z,99.90
2019-03-21T05:32:21.140Z,99.90
2019-03-21T05:34:26.668Z,99.90
2019-03-21T05:36:36.254Z,99.90
2019-03-21T05:38:41.830Z,99.90
2019-03-21T05:40:47.378Z,99.90
2019-03-21T05:42:59.969Z,99.90
2019-03-21T05:45:06.147Z,99.90
2019-03-21T05:47:13.169Z,99.90
2019-03-21T05:49:18.772Z,99.90
2019-03-21T05:51:24.675Z,99.90
2019-03-21T05:53:30.149Z,99.90
2019-03-21T05:55:35.778Z,99.90
2019-03-21T05:57:41.380Z,99.90
2019-03-21T05:59:46.909Z,99.90
2019-03-21T06:01:52.377Z,99.90
2019-03-21T06:03:57.986Z,99.90
2019-03-21T06:06:10.834Z,99.90
2019-03-21T06:08:20.207Z,99.90
2019-03-21T06:10:26.166Z,99.90
2019-03-21T06:12:31.413Z,99.90
2019-03-21T06:14:38.161Z,99.90
2019-03-21T06:16:43.899Z,99.90
2019-03-21T06:18:57.768Z,99.90
2019-03-21T06:21:22.988Z,99.90
2019-03-21T06:23:57.627Z,99.90
2019-03-21T06:26:41.356Z,99.90
2019-03-21T06:28:47.343Z,99.90
2019-03-21T06:30:53.322Z,99.90
2019-03-21T06:32:59.003Z,99.90
2019-03-21T06:35:04.688Z,99.90
2019-03-21T06:37:10.204Z,99.90
2019-03-21T06:39:15.898Z,99.90
2019-03-21T06:41:22.425Z,99.90
2019-03-21T06:43:28.051Z,99.90
2019-03-21T06:45:34.110Z,99.90
2019-03-21T06:47:39.981Z,99.90
2019-03-21T06:49:46.698Z,99.90
2019-03-21T06:51:52.591Z,99.90
2019-03-21T06:53:58.217Z,99.90
2019-03-21T06:56:03.932Z,99.90
2019-03-21T06:58:09.303Z,99.90
2019-03-21T07:00:14.879Z,99.90
2019-03-21T07:02:20.638Z,99.90
2019-03-21T07:04:26.283Z,99.90
2019-03-21T07:06:32.705Z,99.90
2019-03-21T07:08:38.270Z,99.90
2019-03-21T07:10:44.214Z,99.90
2019-03-21T07:12:50.056Z,99.90
2019-03-21T07:14:55.428Z,99.90
2019-03-21T07:17:01.058Z,99.90
2019-03-21T07:19:06.723Z,99.90
2019-03-21T07:21:12.256Z,99.90
2019-03-21T07:23:17.934Z,99.90
2019-03-21T07:25:23.461Z,99.50
2019-03-21T07:27:29.073Z,98.60
2019-03-21T07:29:34.860Z,97.40
2019-03-21T07:31:40.493Z,97.00
2019-03-21T07:33:46.071Z,97.20
2019-03-21T07:35:51.680Z,95.70
2019-03-21T07:37:57.528Z,95.60
2019-03-21T07:40:03.172Z,94.40
2019-03-21T07:42:09.045Z,92.50
2019-03-21T07:44:14.677Z,92.20
2019-03-21T07:46:20.385Z,91.40
2019-03-21T07:48:26.179Z,90.50
2019-03-21T07:50:32.061Z,89.10
2019-03-21T07:52:37.856Z,87.70
2019-03-21T07:54:43.964Z,87.30
2019-03-21T07:56:49.532Z,86.30
2019-03-21T07:58:57.603Z,88.20
2019-03-21T08:01:02.275Z,86.50
2019-03-21T08:03:07.829Z,85.10
2019-03-21T08:05:13.444Z,81.60
2019-03-21T08:07:19.037Z,79.30
2019-03-21T08:09:24.684Z,79.50
2019-03-21T08:11:30.227Z,77.30
2019-03-21T08:13:35.934Z,79.10
2019-03-21T08:15:41.343Z,78.40
2019-03-21T08:17:46.880Z,77.10
2019-03-21T08:19:52.789Z,77.50
2019-03-21T08:21:58.314Z,78.10
2019-03-21T08:24:03.999Z,79.80
2019-03-21T08:26:09.633Z,82.30
2019-03-21T08:28:15.313Z,85.60
2019-03-21T08:30:33.054Z,86.70
2019-03-21T08:32:39.220Z,87.90
2019-03-21T08:34:44.842Z,90.60
2019-03-21T08:36:50.450Z,89.60
2019-03-21T08:38:56.096Z,90.50
2019-03-21T08:41:02.163Z,90.50
2019-03-21T08:43:07.885Z,90.50
2019-03-21T08:45:13.549Z,91.70
2019-03-21T08:47:19.407Z,91.20
2019-03-21T08:49:25.387Z,92.10
2019-03-21T08:51:31.079Z,91.20
2019-03-21T08:53:37.955Z,90.10
2019-03-21T08:55:43.446Z,90.10
2019-03-21T08:57:48.991Z,90.90
2019-03-21T08:59:54.821Z,89.20
2019-03-21T09:02:00.933Z,88.30
2019-03-21T09:04:07.121Z,89.60
2019-03-21T09:06:12.847Z,89.30
2019-03-21T09:08:18.432Z,90.70
2019-03-21T09:10:24.375Z,90.60
2019-03-21T09:12:29.902Z,90.20
2019-03-21T09:14:35.560Z,90.40
2019-03-21T09:16:41.214Z,89.30
2019-03-21T09:18:46.901Z,90.90
2019-03-21T09:20:52.928Z,89.20
2019-03-21T09:22:58.607Z,90.30
2019-03-21T09:25:04.904Z,90.80
2019-03-21T09:27:10.578Z,90.80
2019-03-21T09:29:16.315Z,89.40
2019-03-21T09:31:22.349Z,88.50
2019-03-21T09:33:28.369Z,87.30
2019-03-21T09:35:33.988Z,87.10
2019-03-21T09:37:39.659Z,87.60
2019-03-21T09:39:45.600Z,88.70
2019-03-21T09:41:51.219Z,88.00
2019-03-21T09:43:57.210Z,88.00
2019-03-21T09:46:02.901Z,86.90
2019-03-21T09:48:08.707Z,85.00
2019-03-21T09:50:19.371Z,85.00
2019-03-21T09:52:24.971Z,84.80
2019-03-21T09:54:30.766Z,83.20
2019-03-21T09:56:36.496Z,85.90
2019-03-21T09:58:42.106Z,84.10
2019-03-21T10:00:47.545Z,84.30
2019-03-21T10:02:53.107Z,85.50
2019-03-21T10:04:58.709Z,83.60
2019-03-21T10:07:04.200Z,84.90
2019-03-21T10:09:09.838Z,82.60
2019-03-21T10:11:15.586Z,82.30
2019-03-21T10:13:21.285Z,83.80
2019-03-21T10:15:26.925Z,82.50
2019-03-21T10:17:32.741Z,81.30
2019-03-21T10:19:38.391Z,81.50
2019-03-21T10:21:44.323Z,83.10
2019-03-21T10:23:49.856Z,83.70
2019-03-21T10:25:55.815Z,83.90
2019-03-21T10:28:02.429Z,86.90
2019-03-21T10:30:08.196Z,85.40
2019-03-21T10:32:14.672Z,85.70
2019-03-21T10:34:21.904Z,82.50
2019-03-21T10:36:27.636Z,84.90
2019-03-21T10:38:33.294Z,81.40
2019-03-21T10:40:39.252Z,79.50
2019-03-21T10:42:45.211Z,81.30
2019-03-21T10:44:51.433Z,77.70
2019-03-21T10:46:57.121Z,79.60
2019-03-21T10:49:02.737Z,75.40
2019-03-21T10:51:08.300Z,78.10
2019-03-21T10:53:14.151Z,78.00
2019-03-21T10:55:19.648Z,78.60
2019-03-21T10:57:25.393Z,77.10
2019-03-21T10:59:31.331Z,77.40
2019-03-21T11:01:37.392Z,76.80
2019-03-21T11:03:43.244Z,80.70
2019-03-21T11:05:48.951Z,78.00
2019-03-21T11:07:56.233Z,76.70
2019-03-21T11:10:02.052Z,80.60
2019-03-21T11:12:07.549Z,79.10
2019-03-21T11:14:13.503Z,80.60
2019-03-21T11:16:19.203Z,75.40
2019-03-21T11:18:35.540Z,78.40
2019-03-21T11:20:36.197Z,77.20
2019-03-21T11:22:41.660Z,78.90
2019-03-21T11:24:47.868Z,74.90
2019-03-21T11:26:53.408Z,77.40
2019-03-21T11:28:58.933Z,79.00
2019-03-21T11:31:04.590Z,76.30
2019-03-21T11:33:10.314Z,76.40
2019-03-21T11:35:16.066Z,77.30
2019-03-21T11:37:21.806Z,75.90
2019-03-21T11:39:27.536Z,76.00
2019-03-21T11:41:34.088Z,77.60
2019-03-21T11:43:39.858Z,76.80
2019-03-21T11:45:47.652Z,76.70
2019-03-21T11:47:52.838Z,76.70
2019-03-21T11:49:58.443Z,75.40
2019-03-21T11:52:04.078Z,76.80
2019-03-21T11:54:09.755Z,76.40
2019-03-21T11:56:15.447Z,76.00
2019-03-21T11:58:20.938Z,76.60
2019-03-21T12:00:26.562Z,78.00
2019-03-21T12:02:32.039Z,75.80
2019-03-21T12:04:37.974Z,76.80
2019-03-21T12:06:45.164Z,78.40
2019-03-21T12:08:50.787Z,75.10
2019-03-21T12:10:56.431Z,77.50
2019-03-21T12:13:02.418Z,76.10
2019-03-21T12:15:07.940Z,76.20
2019-03-21T12:17:13.597Z,76.00
2019-03-21T12:19:19.318Z,75.50
2019-03-21T12:21:24.998Z,76.40
2019-03-21T12:23:30.621Z,74.90
2019-03-21T12:25:36.533Z,76.40
2019-03-21T12:27:42.169Z,77.20
2019-03-21T12:29:47.816Z,74.20
2019-03-21T12:31:53.740Z,73.60
2019-03-21T12:33:59.490Z,76.20
2019-03-21T12:36:04.996Z,77.10
2019-03-21T12:38:10.909Z,73.60
2019-03-21T12:40:16.590Z,76.00
2019-03-21T12:42:22.186Z,74.90
2019-03-21T12:44:27.863Z,76.30
2019-03-21T12:46:33.731Z,80.10
2019-03-21T12:48:39.345Z,78.50
2019-03-21T12:50:45.001Z,76.30
2019-03-21T12:52:50.474Z,77.10
2019-03-21T12:54:55.967Z,78.60
2019-03-21T12:57:02.240Z,78.70
2019-03-21T12:59:07.849Z,80.40
2019-03-21T13:01:13.565Z,82.90
2019-03-21T13:03:19.119Z,77.10
2019-03-21T13:05:29.448Z,80.80
2019-03-21T13:07:35.409Z,77.10
2019-03-21T13:09:41.301Z,77.50
2019-03-21T13:11:47.353Z,76.40
2019-03-21T13:13:53.161Z,77.60
2019-03-21T13:15:59.775Z,78.50
2019-03-21T13:18:05.921Z,77.80
2019-03-21T13:20:11.584Z,81.70
2019-03-21T13:22:20.333Z,80.40
2019-03-21T13:24:25.930Z,80.30
2019-03-21T13:26:32.842Z,80.60
2019-03-21T13:28:38.388Z,79.90
2019-03-21T13:30:44.198Z,78.80
2019-03-21T13:32:50.655Z,76.10
2019-03-21T13:34:56.657Z,76.80
2019-03-21T13:37:02.382Z,77.90
2019-03-21T13:39:09.294Z,81.10
2019-03-21T13:41:15.758Z,79.60
2019-03-21T13:43:21.297Z,79.60
2019-03-21T13:45:27.274Z,77.70
2019-03-21T13:47:32.823Z,79.50
2019-03-21T13:49:38.500Z,81.00
2019-03-21T13:51:44.126Z,81.10
2019-03-21T13:53:49.587Z,81.70
2019-03-21T13:55:55.135Z,81.60
2019-03-21T13:58:00.749Z,77.90
2019-03-21T14:00:06.790Z,79.00
2019-03-21T14:02:12.409Z,79.20
2019-03-21T14:04:17.993Z,82.70
2019-03-21T14:06:23.358Z,79.50
2019-03-21T14:08:29.173Z,80.90
2019-03-21T14:10:34.844Z,80.20
2019-03-21T14:12:40.988Z,81.10
2019-03-21T14:14:46.543Z,80.90
2019-03-21T14:16:53.259Z,79.80
2019-03-21T14:18:58.831Z,79.20
2019-03-21T14:21:04.538Z,80.10
2019-03-21T14:23:17.128Z,80.90
2019-03-21T14:25:17.895Z,80.30
2019-03-21T14:27:25.960Z,79.70
2019-03-21T14:29:32.649Z,79.80
2019-03-21T14:31:39.791Z,78.30
2019-03-21T14:33:46.533Z,78.40
2019-03-21T14:35:52.425Z,80.10
2019-03-21T14:37:58.184Z,80.00
2019-03-21T14:40:06.325Z,80.20
2019-03-21T14:42:12.072Z,81.00
2019-03-21T14:44:18.553Z,82.20
2019-03-21T14:46:24.163Z,82.10
2019-03-21T14:48:29.634Z,80.60
2019-03-21T14:50:36.296Z,81.70
2019-03-21T14:52:41.842Z,81.00
2019-03-21T14:54:48.054Z,81.00
2019-03-21T14:56:53.629Z,80.70
2019-03-21T14:58:59.649Z,80.60
2019-03-21T15:01:05.291Z,79.90
2019-03-21T15:03:12.020Z,81.40
2019-03-21T15:05:18.414Z,81.10
2019-03-21T15:07:23.868Z,82.10
2019-03-21T15:09:30.317Z,82.90
2019-03-21T15:11:36.119Z,82.80
2019-03-21T15:13:42.305Z,82.20
2019-03-21T15:15:47.972Z,81.50
2019-03-21T15:17:54.739Z,83.60
2019-03-21T15:20:01.128Z,83.70
2019-03-21T15:22:07.942Z,84.60
2019-03-21T15:24:13.618Z,84.10
2019-03-21T15:26:19.424Z,85.80
2019-03-21T15:28:24.829Z,84.80
2019-03-21T15:30:30.583Z,85.60
2019-03-21T15:32:36.450Z,85.40
2019-03-21T15:34:42.598Z,85.80
2019-03-21T15:36:51.819Z,85.70
2019-03-21T15:38:57.458Z,85.30
2019-03-21T15:41:03.144Z,85.20
2019-03-21T15:43:08.762Z,85.90
2019-03-21T15:45:22.167Z,86.20
2019-03-21T15:47:22.433Z,85.40
2019-03-21T15:49:28.110Z,85.70
2019-03-21T15:51:33.674Z,86.80
2019-03-21T15:53:39.312Z,87.10
2019-03-21T15:55:45.429Z,87.30
2019-03-21T15:57:50.942Z,87.20
2019-03-21T15:59:57.681Z,87.20
2019-03-21T16:02:03.476Z,87.20
2019-03-21T16:04:09.369Z,87.30
2019-03-21T16:06:15.200Z,87.40
2019-03-21T16:08:21.140Z,87.30
2019-03-21T16:10:26.818Z,88.10
2019-03-21T16:12:32.782Z,87.90
2019-03-21T16:14:38.738Z,88.40
2019-03-21T16:16:45.816Z,88.50
2019-03-21T16:18:51.491Z,89.20
2019-03-21T16:20:57.104Z,89.00
2019-03-21T16:23:03.065Z,90.10
2019-03-21T16:25:09.500Z,89.90
2019-03-21T16:27:15.186Z,90.10
2019-03-21T16:29:20.643Z,89.90
2019-03-21T16:31:26.603Z,90.10
2019-03-21T16:33:32.314Z,90.00
2019-03-21T16:35:38.229Z,90.00
2019-03-21T16:37:43.916Z,90.20
2019-03-21T16:39:50.117Z,90.20
2019-03-21T16:41:55.726Z,90.30
2019-03-21T16:44:01.436Z,90.60
2019-03-21T16:46:10.327Z,90.70
2019-03-21T16:48:16.213Z,90.70
2019-03-21T16:50:21.880Z,90.80
2019-03-21T16:52:28.040Z,91.30
2019-03-21T16:54:33.733Z,91.50
2019-03-21T16:56:40.842Z,91.10
2019-03-21T16:58:46.457Z,91.20
2019-03-21T17:00:52.456Z,91.50
2019-03-21T17:02:58.073Z,91.60
2019-03-21T17:05:03.620Z,91.90
2019-03-21T17:07:09.769Z,92.00
2019-03-21T17:09:15.243Z,92.40
2019-03-21T17:11:21.071Z,92.40
2019-03-21T17:13:27.325Z,92.50
2019-03-21T17:15:33.298Z,92.60
2019-03-21T17:17:38.961Z,92.80
2019-03-21T17:19:44.815Z,92.90
2019-03-21T17:21:50.446Z,93.00
2019-03-21T17:23:56.197Z,93.70
2019-03-21T17:26:01.704Z,93.70
2019-03-21T17:28:07.301Z,94.20
2019-03-21T17:30:13.011Z,94.80
2019-03-21T17:32:18.525Z,95.20
2019-03-21T17:34:24.544Z,95.10
2019-03-21T17:36:30.138Z,95.40
2019-03-21T17:38:36.034Z,95.90
2019-03-21T17:40:42.446Z,96.30
2019-03-21T17:42:48.416Z,96.80
2019-03-21T17:44:53.872Z,97.20
2019-03-21T17:46:59.557Z,98.10
2019-03-21T17:49:05.368Z,99.00
2019-03-21T17:51:11.207Z,99.90
2019-03-21T17:53:16.862Z,99.90
2019-03-21T17:55:22.531Z,99.90
2019-03-21T17:57:34.421Z,99.90
2019-03-21T17:59:35.831Z,99.90
2019-03-21T18:01:41.501Z,99.90
2019-03-21T18:03:47.168Z,99.90
2019-03-21T18:12:32.305Z,99.90
2019-03-21T18:14:38.971Z,99.90
2019-03-21T18:16:44.628Z,99.90
2019-03-21T18:18:50.160Z,99.90
2019-03-21T18:20:55.726Z,99.90
2019-03-21T18:23:01.389Z,99.90
2019-03-21T18:25:07.189Z,99.90
2019-03-21T18:27:12.806Z,99.90
2019-03-21T18:29:18.870Z,99.90
2019-03-21T18:31:24.244Z,99.90
2019-03-21T18:33:30.002Z,99.90
2019-03-21T18:35:35.824Z,99.90
2019-03-21T18:37:41.430Z,99.90
2019-03-21T18:39:47.280Z,99.90
2019-03-21T18:41:52.620Z,99.90
2019-03-21T18:43:58.660Z,99.90
2019-03-21T18:46:04.756Z,99.90
2019-03-21T18:48:10.165Z,99.90
2019-03-21T18:50:16.252Z,99.90
2019-03-21T18:52:21.885Z,99.90
2019-03-21T18:54:27.727Z,99.90
2019-03-21T18:56:33.304Z,99.90
2019-03-21T18:58:39.276Z,99.90
2019-03-21T19:00:44.930Z,99.90
2019-03-21T19:02:50.555Z,99.90
2019-03-21T19:04:56.079Z,99.90
2019-03-21T19:07:03.249Z,99.90
2019-03-21T19:09:09.836Z,99.90
2019-03-21T19:11:15.507Z,99.90
2019-03-21T19:13:21.240Z,99.90
2019-03-21T19:15:26.781Z,99.90
2019-03-21T19:17:32.263Z,99.90
2019-03-21T19:19:39.831Z,99.90
2019-03-21T19:21:45.574Z,99.90
2019-03-21T19:23:51.388Z,99.90
2019-03-21T19:25:57.206Z,99.90
2019-03-21T19:28:03.263Z,99.90
2019-03-21T19:30:10.517Z,99.90
2019-03-21T19:32:16.061Z,99.90
2019-03-21T19:34:21.797Z,99.90
2019-03-21T19:36:28.788Z,99.90
2019-03-21T19:38:34.775Z,99.90
2019-03-21T19:40:40.949Z,99.90
2019-03-21T19:42:46.598Z,99.90
2019-03-21T19:44:53.163Z,99.90
2019-03-21T19:47:01.361Z,99.90
2019-03-21T19:49:07.953Z,99.90
2019-03-21T19:51:14.265Z,99.90
2019-03-21T19:53:19.860Z,99.90
2019-03-21T19:55:30.788Z,99.90
2019-03-21T19:57:33.121Z,99.90
2019-03-21T19:59:40.700Z,99.90
2019-03-21T20:01:45.918Z,99.90
2019-03-21T20:03:51.511Z,99.90
2019-03-21T20:06:00.478Z,99.90
2019-03-21T20:08:04.808Z,99.90
2019-03-21T20:10:10.796Z,99.90
2019-03-21T20:12:16.715Z,99.90
2019-03-21T20:14:22.781Z,99.90
2019-03-21T20:16:28.515Z,99.90
2019-03-21T20:18:33.896Z,99.90
2019-03-21T20:20:39.952Z,99.90
2019-03-21T20:22:45.723Z,99.90
2019-03-21T20:24:51.585Z,99.90
2019-03-21T20:26:57.479Z,99.90
2019-03-21T20:29:03.045Z,99.90
2019-03-21T20:31:09.147Z,99.90
2019-03-21T20:33:14.743Z,99.90
2019-03-21T20:35:21.334Z,99.90
2019-03-21T20:37:27.691Z,99.90
2019-03-21T20:39:33.262Z,99.90
2019-03-21T20:41:38.998Z,99.90
2019-03-21T20:43:44.916Z,99.90
2019-03-21T20:45:50.491Z,99.90
2019-03-21T20:47:55.999Z,99.90
2019-03-21T20:50:01.846Z,99.90
2019-03-21T20:52:07.957Z,99.90
2019-03-21T20:54:13.648Z,99.90
2019-03-21T20:56:19.366Z,99.90
2019-03-21T20:58:25.289Z,99.90
2019-03-21T21:00:31.212Z,99.90
2019-03-21T21:02:36.705Z,99.90
2019-03-21T21:04:42.510Z,99.90
2019-03-21T21:06:48.229Z,99.90
2019-03-21T21:08:54.243Z,99.90
2019-03-21T21:11:01.153Z,99.90
2019-03-21T21:13:06.712Z,99.90
2019-03-21T21:15:12.605Z,99.90
2019-03-21T21:17:18.668Z,99.90
2019-03-21T21:19:24.557Z,99.90
2019-03-21T21:21:30.489Z,99.90
2019-03-21T21:23:36.390Z,99.90
2019-03-21T21:25:42.658Z,99.90
2019-03-21T21:27:49.806Z,99.90
2019-03-21T21:29:55.773Z,99.90
2019-03-21T21:32:01.913Z,99.90
2019-03-21T21:34:07.589Z,99.90
2019-03-21T21:36:21.666Z,99.90
2019-03-21T21:38:20.922Z,99.90
2019-03-21T21:40:26.683Z,99.90
2019-03-21T21:42:32.604Z,99.90
2019-03-21T21:44:38.267Z,99.90
2019-03-21T21:46:43.783Z,99.90
2019-03-21T21:48:49.537Z,99.90
2019-03-21T21:50:56.507Z,99.90
2019-03-21T21:53:02.250Z,99.90
2019-03-21T21:55:09.106Z,99.90
2019-03-21T21:57:14.684Z,99.90
2019-03-21T21:59:20.326Z,99.90
2019-03-21T22:01:26.081Z,99.90
2019-03-21T22:03:31.819Z,99.90
2019-03-21T22:05:37.321Z,99.90
2019-03-21T22:07:43.340Z,99.90
2019-03-21T22:09:48.852Z,99.90
2019-03-21T22:11:54.391Z,99.90
2019-03-21T22:14:00.309Z,99.90
2019-03-21T22:16:06.040Z,99.90
2019-03-21T22:18:11.992Z,99.90
2019-03-21T22:20:18.008Z,99.90
2019-03-21T22:22:23.587Z,99.90
2019-03-21T22:24:30.248Z,99.90
2019-03-21T22:26:36.059Z,99.90
2019-03-21T22:28:41.855Z,99.90
2019-03-21T22:30:47.563Z,99.90
2019-03-21T22:32:55.949Z,99.90
2019-03-21T22:35:01.857Z,99.90
2019-03-21T22:37:07.746Z,99.90
2019-03-21T22:39:13.635Z,99.90
2019-03-21T22:41:19.496Z,99.90
2019-03-21T22:43:25.347Z,99.90
2019-03-21T22:45:30.847Z,99.90
2019-03-21T22:47:37.460Z,99.90
2019-03-21T22:49:43.079Z,99.90
2019-03-21T22:51:48.740Z,99.90
2019-03-21T22:53:54.806Z,99.90
2019-03-21T22:56:00.891Z,99.90
2019-03-21T22:58:06.482Z,99.90
2019-03-21T23:00:14.709Z,99.90
2019-03-21T23:02:20.310Z,99.90
2019-03-21T23:04:25.991Z,99.90
2019-03-21T23:06:31.594Z,99.90
2019-03-21T23:08:37.452Z,99.90
2019-03-21T23:10:45.146Z,99.90
2019-03-21T23:12:50.376Z,99.90
2019-03-21T23:14:55.922Z,99.90
2019-03-21T23:17:01.517Z,99.90
2019-03-21T23:19:07.201Z,99.90
2019-03-21T23:21:12.877Z,99.90
2019-03-21T23:23:18.906Z,99.90
2019-03-21T23:25:24.691Z,99.90
2019-03-21T23:27:30.143Z,99.90
2019-03-21T23:29:35.769Z,99.90
2019-03-21T23:31:41.523Z,99.90
2019-03-21T23:33:47.424Z,99.90
2019-03-21T23:35:52.972Z,99.90
2019-03-21T23:37:58.479Z,99.90
2019-03-21T23:40:04.126Z,99.90
2019-03-21T23:42:09.566Z,99.90
2019-03-21T23:44:15.759Z,99.90
2019-03-21T23:46:21.255Z,99.90
2019-03-21T23:48:26.779Z,99.90
2019-03-21T23:50:32.555Z,99.90
2019-03-21T23:52:38.443Z,99.90
2019-03-21T23:54:44.460Z,99.90
2019-03-21T23:56:50.189Z,99.90
2019-03-21T23:58:55.900Z,99.90
